Time;durP1;ratioP1;P1;durP2;ratioP2;P2;SDS_P1;SDS_P2;PMS_P1;PMS_P2;Temp;Humidity;BMP_temperature;BMP_pressure;BME280_temperature;BME280_humidity;BME280_pressure;Samples;Min_cycle;Max_cycle;Signal;HPM_P1;HPM_P2
2022/07/29 00:00:49;;;;;;;9.93;5.63;;;20.90;99.90;;;;;;5035216;28;20064;-71
2022/07/29 00:03:15;;;;;;;15.57;6.10;;;20.90;99.90;;;;;;5042253;28;20059;-72
2022/07/29 00:05:41;;;;;;;14.00;5.88;;;20.90;99.90;;;;;;5052770;28;20032;-73
2022/07/29 00:08:10;;;;;;;10.52;5.82;;;20.80;99.90;;;;;;5052108;28;20112;-73
2022/07/29 00:10:36;;;;;;;13.95;5.82;;;20.80;99.90;;;;;;5053141;28;20033;-70
2022/07/29 00:13:02;;;;;;;9.95;5.82;;;20.80;99.90;;;;;;5050217;28;20027;-68
2022/07/29 00:15:28;;;;;;;14.50;5.88;;;20.90;99.90;;;;;;5051423;28;20025;-64
2022/07/29 00:17:54;;;;;;;11.27;5.45;;;20.90;99.90;;;;;;5052868;28;20017;-73
2022/07/29 00:20:20;;;;;;;10.85;5.68;;;21.00;99.90;;;;;;5052933;28;20387;-73
2022/07/29 00:22:46;;;;;;;8.80;5.35;;;21.00;99.90;;;;;;5052696;28;20029;-72
2022/07/29 00:25:12;;;;;;;10.35;5.88;;;21.00;99.90;;;;;;5052811;28;20439;-73
2022/07/29 00:27:39;;;;;;;10.10;5.75;;;21.00;99.90;;;;;;5051990;28;20033;-70
2022/07/29 00:30:06;;;;;;;11.48;6.07;;;21.00;99.90;;;;;;5052698;28;20029;-73
2022/07/29 00:32:32;;;;;;;9.75;5.95;;;20.80;99.90;;;;;;5053071;28;20017;-73
2022/07/29 00:37:42;;;;;;;10.80;6.40;;;20.80;99.90;;;;;;5049775;28;20028;-72
2022/07/29 00:40:09;;;;;;;9.75;5.95;;;20.90;99.90;;;;;;5052177;28;20029;-71
2022/07/29 00:42:49;;;;;;;15.15;6.20;;;20.90;99.90;;;;;;5035232;28;20028;-69
2022/07/29 00:45:15;;;;;;;8.55;5.43;;;21.00;99.90;;;;;;5053353;28;20021;-67
2022/07/29 00:47:41;;;;;;;13.00;6.63;;;21.00;99.90;;;;;;5053780;28;20061;-73
2022/07/29 00:50:10;;;;;;;9.48;5.50;;;21.00;99.90;;;;;;5053120;28;20029;-72
2022/07/29 00:52:37;;;;;;;11.50;5.18;;;21.00;99.90;;;;;;5053502;28;20498;-72
2022/07/29 00:55:05;;;;;;;10.02;5.82;;;20.90;99.90;;;;;;5048475;28;20017;-68
2022/07/29 00:57:32;;;;;;;14.55;7.05;;;20.90;99.90;;;;;;5051606;28;20024;-73
2022/07/29 00:59:58;;;;;;;13.90;7.88;;;20.70;99.90;;;;;;5051532;28;20033;-73
2022/07/29 01:02:24;;;;;;;14.57;7.90;;;20.70;99.90;;;;;;5050054;28;20061;-72
2022/07/29 01:04:50;;;;;;;15.70;8.30;;;20.70;99.90;;;;;;5053194;28;20383;-71
2022/07/29 01:07:17;;;;;;;15.15;8.00;;;20.80;99.90;;;;;;5034712;28;20044;-72
2022/07/29 01:09:44;;;;;;;20.13;8.73;;;20.70;99.90;;;;;;5035347;28;20100;-73
2022/07/29 01:12:12;;;;;;;18.10;8.80;;;20.60;99.90;;;;;;5051564;28;20115;-73
2022/07/29 01:14:40;;;;;;;16.02;8.13;;;20.40;99.90;;;;;;5053022;28;20032;-73
2022/07/29 01:17:26;;;;;;;23.58;8.57;;;20.50;99.90;;;;;;5049108;28;20033;-73
2022/07/29 01:20:02;;;;;;;17.17;8.40;;;20.60;99.90;;;;;;5050944;28;20087;-73
2022/07/29 01:22:41;;;;;;;18.00;8.02;;;20.60;99.90;;;;;;5034223;28;20453;-72
2022/07/29 01:25:19;;;;;;;18.08;8.25;;;20.70;99.90;;;;;;5032191;28;20025;-73
2022/07/29 01:28:11;;;;;;;17.42;7.40;;;20.80;99.90;;;;;;5034653;28;20618;-73
2022/07/29 01:30:39;;;;;;;21.05;8.90;;;20.80;99.90;;;;;;5025581;28;20026;-74
2022/07/29 01:33:48;;;;;;;17.73;8.50;;;20.70;99.90;;;;;;5029371;28;20026;-72
2022/07/29 01:36:05;;;;;;;25.45;8.23;;;20.60;99.90;;;;;;5038056;28;20456;-73
2022/07/29 01:38:31;;;;;;;14.82;7.40;;;20.60;99.90;;;;;;5031276;28;20029;-73
2022/07/29 01:41:06;;;;;;;15.10;7.53;;;20.60;99.90;;;;;;5030646;28;20076;-73
2022/07/29 01:43:55;;;;;;;15.02;7.75;;;20.60;99.90;;;;;;5030944;28;20057;-73
2022/07/29 01:46:31;;;;;;;21.45;7.78;;;20.50;99.90;;;;;;5013581;28;20037;-73
2022/07/29 01:49:05;;;;;;;16.83;7.93;;;20.40;99.90;;;;;;5031461;28;20123;-73
2022/07/29 01:51:54;;;;;;;14.00;7.32;;;20.40;99.90;;;;;;5031461;28;20030;-72
2022/07/29 01:54:26;;;;;;;11.68;6.57;;;20.40;99.90;;;;;;5030922;28;20025;-72
2022/07/29 01:56:56;;;;;;;16.10;7.22;;;20.40;99.90;;;;;;5030784;28;20498;-72
2022/07/29 01:59:24;;;;;;;12.35;6.60;;;20.40;99.90;;;;;;5031194;28;20045;-70
2022/07/29 02:01:53;;;;;;;11.02;6.43;;;20.40;99.90;;;;;;5031003;28;20028;-72
2022/07/29 02:04:20;;;;;;;11.27;6.65;;;20.40;99.90;;;;;;5030968;28;20033;-73
2022/07/29 02:06:50;;;;;;;11.65;6.55;;;20.30;99.90;;;;;;5030928;28;20068;-73
2022/07/29 02:09:17;;;;;;;13.75;6.13;;;20.30;99.90;;;;;;5030485;28;20045;-72
2022/07/29 02:11:50;;;;;;;12.10;5.93;;;20.20;99.90;;;;;;5038621;28;20024;-72
2022/07/29 02:14:18;;;;;;;11.18;5.68;;;20.10;99.90;;;;;;5030851;28;20066;-71
2022/07/29 02:16:46;;;;;;;12.48;5.72;;;20.10;99.90;;;;;;5030777;28;20418;-72
2022/07/29 02:19:14;;;;;;;10.88;5.85;;;20.00;99.90;;;;;;5030793;28;20025;-72
2022/07/29 02:21:40;;;;;;;13.15;6.78;;;20.00;99.90;;;;;;5030650;28;20021;-72
2022/07/29 02:24:09;;;;;;;13.73;6.82;;;20.00;99.90;;;;;;5030722;28;20025;-72
2022/07/29 02:26:37;;;;;;;14.88;7.18;;;20.00;99.90;;;;;;5030709;28;20025;-73
2022/07/29 02:29:03;;;;;;;9.02;5.25;;;20.00;99.90;;;;;;5030616;28;20018;-73
2022/07/29 02:31:33;;;;;;;14.35;6.80;;;19.90;99.90;;;;;;5030577;28;20041;-73
2022/07/29 02:34:01;;;;;;;13.07;6.53;;;19.90;99.90;;;;;;5030741;28;20022;-68
2022/07/29 02:36:29;;;;;;;14.82;6.40;;;19.90;99.90;;;;;;5013069;28;20025;-71
2022/07/29 02:39:00;;;;;;;10.68;5.97;;;19.90;99.90;;;;;;5030244;28;20435;-72
2022/07/29 02:41:41;;;;;;;17.23;7.40;;;19.80;99.90;;;;;;5030644;28;20075;-73
2022/07/29 02:44:13;;;;;;;15.60;6.30;;;19.80;99.90;;;;;;5030617;28;20017;-72
2022/07/29 02:46:50;;;;;;;;;;;19.80;99.90;;;;;;5031176;28;20050;-72
2022/07/29 02:49:38;;;;;;;21.73;9.93;;;19.90;99.90;;;;;;5030405;28;19919;-71
2022/07/29 02:52:12;;;;;;;17.67;8.02;;;19.80;99.90;;;;;;5030775;28;20018;-69
2022/07/29 02:54:40;;;;;;;18.63;7.78;;;19.90;99.90;;;;;;5031466;28;20028;-71
2022/07/29 02:57:18;;;;;;;13.57;6.78;;;19.80;99.90;;;;;;5038189;28;20033;-72
2022/07/29 02:59:47;;;;;;;14.95;7.28;;;19.80;99.90;;;;;;5033981;28;20453;-71
2022/07/29 03:02:15;;;;;;;17.10;8.65;;;19.80;99.90;;;;;;5030281;28;20512;-72
2022/07/29 03:04:43;;;;;;;13.48;6.88;;;19.80;99.90;;;;;;5030401;28;20041;-72
2022/07/29 03:07:12;;;;;;;18.80;7.28;;;19.80;99.90;;;;;;5030270;28;20033;-72
2022/07/29 03:09:41;;;;;;;16.00;8.13;;;19.80;99.90;;;;;;5030347;28;20018;-69
2022/07/29 03:12:08;;;;;;;13.85;7.30;;;19.80;99.90;;;;;;5036689;28;20014;-71
2022/07/29 03:14:34;;;;;;;18.98;8.57;;;19.80;99.90;;;;;;5029874;28;20025;-72
2022/07/29 03:17:00;;;;;;;15.70;8.73;;;19.70;99.90;;;;;;5030478;28;20009;-72
2022/07/29 03:19:27;;;;;;;19.55;8.65;;;19.70;99.90;;;;;;5030491;28;20033;-71
2022/07/29 03:21:56;;;;;;;19.48;9.07;;;19.70;99.90;;;;;;5031966;28;20083;-72
2022/07/29 03:24:34;;;;;;;20.70;8.27;;;19.70;99.90;;;;;;5033906;28;20043;-72
2022/07/29 03:27:00;;;;;;;19.35;9.90;;;19.70;99.90;;;;;;5034024;28;20060;-73
2022/07/29 03:29:27;;;;;;;19.85;9.02;;;19.70;99.90;;;;;;5033646;28;20529;-72
2022/07/29 03:31:53;;;;;;;14.82;8.02;;;19.60;99.90;;;;;;5033703;28;20021;-68
2022/07/29 03:34:19;;;;;;;18.00;7.30;;;19.50;99.90;;;;;;5034033;28;20022;-72
2022/07/29 03:36:45;;;;;;;14.38;6.80;;;19.30;99.90;;;;;;5033693;28;20033;-72
2022/07/29 03:39:14;;;;;;;15.73;8.00;;;19.40;99.90;;;;;;5033478;28;20099;-71
2022/07/29 03:41:42;;;;;;;17.08;7.85;;;19.50;99.90;;;;;;5033740;28;20439;-72
2022/07/29 03:44:09;;;;;;;15.88;8.40;;;19.70;99.90;;;;;;5033445;28;20025;-72
2022/07/29 03:46:36;;;;;;;17.58;8.73;;;20.10;99.90;;;;;;5033620;28;20443;-62
2022/07/29 03:49:04;;;;;;;25.10;10.20;;;20.50;99.90;;;;;;5033577;28;20021;-72
2022/07/29 03:51:31;;;;;;;27.20;9.50;;;21.10;99.90;;;;;;5033512;28;20109;-72
2022/07/29 03:53:57;;;;;;;19.92;7.65;;;21.40;99.90;;;;;;5033460;28;20045;-69
2022/07/29 03:56:24;;;;;;;39.95;9.30;;;21.90;99.90;;;;;;5033220;28;20079;-72
2022/07/29 03:58:52;;;;;;;20.50;8.45;;;22.30;99.90;;;;;;5036194;28;20097;-72
2022/07/29 04:01:19;;;;;;;16.42;8.77;;;22.50;99.90;;;;;;5033089;28;20033;-73
2022/07/29 04:03:45;;;;;;;17.92;8.27;;;23.10;99.20;;;;;;5033763;28;20045;-73
2022/07/29 04:06:12;;;;;;;18.27;8.48;;;23.50;97.20;;;;;;5032971;28;20028;-73
2022/07/29 04:08:37;;;;;;;20.65;7.97;;;24.00;95.00;;;;;;5032725;28;20105;-72
2022/07/29 04:11:05;;;;;;;12.40;7.57;;;24.30;93.70;;;;;;5037072;28;20101;-73
2022/07/29 04:13:32;;;;;;;14.38;7.53;;;25.00;92.60;;;;;;5034258;28;20025;-73
2022/07/29 04:15:58;;;;;;;17.27;8.30;;;25.30;90.20;;;;;;5032974;28;20037;-73
2022/07/29 04:18:25;;;;;;;18.27;8.05;;;;;;;;;;5049874;28;20021;-73
2022/07/29 04:20:51;;;;;;;15.77;8.10;;;;;;;;;;5054027;28;20036;-73
2022/07/29 04:23:18;;;;;;;16.88;7.93;;;;;;;;;;5053239;28;20017;-72
2022/07/29 04:25:44;;;;;;;13.73;7.47;;;26.50;82.60;;;;;;5053343;28;20017;-72
2022/07/29 04:28:10;;;;;;;14.52;7.38;;;26.90;81.60;;;;;;5054048;28;20546;-72
2022/07/29 04:30:37;;;;;;;11.98;7.05;;;27.20;79.40;;;;;;5048007;28;20091;-73
2022/07/29 04:33:05;;;;;;;16.42;7.13;;;;;;;;;;5049780;28;20033;-72
2022/07/29 04:35:34;;;;;;;13.52;8.23;;;;;;;;;;5053216;28;20104;-73
2022/07/29 04:38:00;;;;;;;15.05;7.47;;;;;;;;;;5053426;28;20017;-72
2022/07/29 04:40:27;;;;;;;18.02;7.32;;;28.80;75.20;;;;;;5053123;28;20091;-73
2022/07/29 04:42:53;;;;;;;15.73;6.53;;;27.80;76.60;;;;;;5052969;28;20020;-72
2022/07/29 04:45:19;;;;;;;16.52;7.80;;;27.10;77.10;;;;;;5053185;28;20029;-73
2022/07/29 04:47:44;;;;;;;11.38;6.70;;;28.30;76.30;;;;;;5053451;28;20520;-73
2022/07/29 04:50:10;;;;;;;18.02;7.95;;;29.40;71.00;;;;;;5053452;28;20044;-71
2022/07/29 04:52:36;;;;;;;13.48;7.80;;;29.00;71.00;;;;;;5053546;28;20074;-73
2022/07/29 04:55:06;;;;;;;18.65;7.65;;;28.80;70.30;;;;;;5052685;28;20360;-73
2022/07/29 04:57:32;;;;;;;17.38;8.40;;;29.70;69.50;;;;;;5049725;28;20029;-73
2022/07/29 04:59:58;;;;;;;17.25;8.38;;;29.80;69.50;;;;;;5052729;28;20174;-73
2022/07/29 05:02:24;;;;;;;18.23;8.68;;;30.20;68.10;;;;;;5045208;28;20495;-72
2022/07/29 05:04:49;;;;;;;15.50;7.68;;;30.10;68.50;;;;;;5052955;28;20078;-73
2022/07/29 05:07:15;;;;;;;16.17;7.13;;;29.00;70.40;;;;;;5052527;28;20029;-71
2022/07/29 05:09:41;;;;;;;23.63;8.75;;;28.50;71.40;;;;;;5052976;28;20132;-73
2022/07/29 05:12:07;;;;;;;16.15;8.05;;;27.70;73.60;;;;;;5052519;28;20017;-73
2022/07/29 05:14:33;;;;;;;21.48;8.90;;;27.40;74.50;;;;;;5052532;28;20036;-70
2022/07/29 05:16:59;;;;;;;18.75;7.38;;;27.40;75.40;;;;;;5051968;28;20546;-71
2022/07/29 05:19:25;;;;;;;19.98;9.18;;;26.30;77.50;;;;;;5051366;28;20029;-73
2022/07/29 05:21:51;;;;;;;17.60;7.90;;;;;;;;;;5052942;28;20032;-73
2022/07/29 05:24:17;;;;;;;14.77;7.88;;;;;;;;;;5052630;28;20410;-73
2022/07/29 05:26:43;;;;;;;23.45;9.07;;;;;;;;;;5052105;28;20059;-73
2022/07/29 05:29:10;;;;;;;15.23;6.65;;;25.40;96.90;;;;;;5052684;28;20070;-74
2022/07/29 05:31:35;;;;;;;12.85;6.80;;;25.60;96.30;;;;;;5044827;28;20040;-73
2022/07/29 05:34:01;;;;;;;11.73;5.68;;;25.80;95.20;;;;;;5052349;28;20032;-73
2022/07/29 05:36:27;;;;;;;12.00;6.20;;;25.50;93.70;;;;;;5052300;28;20025;-74
2022/07/29 05:38:53;;;;;;;11.38;7.15;;;25.30;93.90;;;;;;5052348;28;20057;-72
2022/07/29 05:41:19;;;;;;;12.30;6.70;;;25.40;90.80;;;;;;5051873;28;20036;-74
2022/07/29 05:43:45;;;;;;;12.73;6.97;;;25.50;91.00;;;;;;5052075;28;20025;-73
2022/07/29 05:46:11;;;;;;;13.38;6.40;;;25.80;90.70;;;;;;5051082;28;20035;-73
2022/07/29 05:48:38;;;;;;;11.25;6.35;;;25.80;90.20;;;;;;5051954;28;20017;-73
2022/07/29 05:51:04;;;;;;;10.80;5.90;;;26.00;89.00;;;;;;5052566;28;20518;-73
2022/07/29 05:53:30;;;;;;;11.18;6.90;;;26.40;87.80;;;;;;5050865;28;20024;-67
2022/07/29 05:55:56;;;;;;;10.07;6.25;;;26.70;86.50;;;;;;5050990;28;20063;-74
2022/07/29 05:58:22;;;;;;;12.32;6.05;;;26.50;83.30;;;;;;5052051;28;20039;-73
2022/07/29 06:00:48;;;;;;;13.25;6.43;;;;;;;;;;5052072;28;20040;-75
2022/07/29 06:03:14;;;;;;;12.10;6.57;;;27.10;91.80;;;;;;5034078;28;20395;-79
2022/07/29 06:05:40;;;;;;;14.27;6.55;;;26.60;82.60;;;;;;5050302;28;20055;-78
2022/07/29 06:08:06;;;;;;;14.02;6.65;;;26.80;82.30;;;;;;5051323;28;20110;-78
2022/07/29 06:10:34;;;;;;;10.45;6.15;;;26.90;82.10;;;;;;5051088;28;20166;-78
2022/07/29 06:12:59;;;;;;;10.20;6.40;;;27.00;80.80;;;;;;5051491;28;20025;-78
2022/07/29 06:15:26;;;;;;;12.48;5.55;;;26.90;80.90;;;;;;5051309;28;20039;-79
2022/07/29 06:17:55;;;;;;;21.98;6.65;;;;;;;;;;5051785;28;20119;-77
2022/07/29 06:20:22;;;;;;;15.23;5.93;;;;;;;;;;5051556;28;20095;-79
2022/07/29 06:22:49;;;;;;;11.10;5.85;;;;;;;;;;5050933;28;20421;-79
2022/07/29 06:25:14;;;;;;;10.55;5.55;;;26.70;99.70;;;;;;5050605;28;20075;-77
2022/07/29 06:27:42;;;;;;;13.63;5.95;;;27.40;79.90;;;;;;5051332;28;20025;-79
2022/07/29 06:30:09;;;;;;;22.90;6.53;;;27.40;80.40;;;;;;5049341;28;20021;-77
2022/07/29 06:32:35;;;;;;;12.75;5.80;;;26.90;81.10;;;;;;5049597;28;20021;-77
2022/07/29 06:35:01;;;;;;;9.88;5.50;;;26.90;81.50;;;;;;5051205;28;20025;-75
2022/07/29 06:37:27;;;;;;;13.55;5.75;;;27.10;81.80;;;;;;5049351;28;20367;-70
2022/07/29 06:40:59;;;;;;;11.95;6.35;;;27.50;81.10;;;;;;5050049;28;20032;-76
2022/07/29 06:42:42;;;;;;;10.27;5.15;;;27.70;79.10;;;;;;5050088;28;20025;-76
2022/07/29 06:45:09;;;;;;;10.90;5.75;;;28.10;81.00;;;;;;5042616;28;20438;-76
2022/07/29 06:47:35;;;;;;;29.35;5.80;;;28.10;78.50;;;;;;5050107;28;20056;-77
2022/07/29 06:50:01;;;;;;;11.50;5.85;;;28.20;77.60;;;;;;5050939;28;20051;-75
2022/07/29 06:52:26;;;;;;;11.02;5.95;;;27.60;78.60;;;;;;5050485;28;20074;-74
2022/07/29 06:54:55;;;;;;;15.75;6.15;;;27.50;77.70;;;;;;5048259;28;20068;-72
2022/07/29 06:57:21;;;;;;;20.20;5.78;;;27.70;76.20;;;;;;5052769;28;20394;-77
2022/07/29 06:59:47;;;;;;;20.90;5.70;;;27.90;75.90;;;;;;5051127;28;20029;-77
2022/07/29 07:02:13;;;;;;;10.35;6.43;;;27.60;77.00;;;;;;5052488;28;20392;-79
2022/07/29 07:04:39;;;;;;;14.93;5.15;;;28.00;76.50;;;;;;5053712;28;20048;-78
2022/07/29 07:07:05;;;;;;;9.80;5.32;;;28.10;75.10;;;;;;5055065;28;20029;-75
2022/07/29 07:09:31;;;;;;;9.20;5.07;;;28.30;75.00;;;;;;5054726;28;20029;-75
2022/07/29 07:12:00;;;;;;;12.85;5.30;;;;;;;;;;5053691;28;20021;-78
2022/07/29 07:14:27;;;;;;;8.20;5.32;;;28.60;75.00;;;;;;5041703;28;20025;-78
2022/07/29 07:16:52;;;;;;;8.05;4.95;;;28.00;74.10;;;;;;5053972;28;20021;-77
2022/07/29 07:19:19;;;;;;;11.07;5.35;;;28.30;73.50;;;;;;5036218;28;20523;-77
2022/07/29 07:21:44;;;;;;;14.10;5.10;;;29.20;73.50;;;;;;5036896;28;20028;-78
2022/07/29 07:24:11;;;;;;;9.20;5.50;;;;;;;;;;5036486;28;20026;-75
2022/07/29 07:26:39;;;;;;;8.65;4.93;;;29.70;71.10;;;;;;5037702;28;20410;-79
2022/07/29 07:29:05;;;;;;;10.18;5.70;;;;;;;;;;5038929;28;20383;-71
2022/07/29 07:31:31;;;;;;;11.63;5.50;;;29.50;70.80;;;;;;5036768;28;20036;-72
2022/07/29 07:33:57;;;;;;;9.30;5.47;;;29.30;70.90;;;;;;5035976;28;20025;-77
2022/07/29 07:36:24;;;;;;;9.27;5.75;;;;;;;;;;5036544;28;20119;-67
2022/07/29 07:38:50;;;;;;;8.25;4.93;;;30.20;69.80;;;;;;5038520;28;20021;-78
2022/07/29 07:41:16;;;;;;;8.75;5.53;;;30.60;71.90;;;;;;5047186;28;20037;-69
2022/07/29 07:43:42;;;;;;;8.85;5.63;;;;;;;;;;5054210;28;20025;-77
2022/07/29 07:46:08;;;;;;;9.45;5.35;;;30.40;81.70;;;;;;5054305;28;20028;-67
2022/07/29 07:48:34;;;;;;;10.93;6.18;;;30.50;83.60;;;;;;5054322;28;20029;-78
2022/07/29 07:51:00;;;;;;;20.88;6.57;;;;;;;;;;5054377;28;20039;-77
2022/07/29 07:53:26;;;;;;;10.80;5.53;;;30.80;86.30;;;;;;5054639;28;20056;-76
2022/07/29 07:55:53;;;;;;;13.25;5.47;;;;;;;;;;5052900;28;20430;-78
2022/07/29 07:58:19;;;;;;;12.15;4.97;;;31.00;91.40;;;;;;5052904;28;20100;-77
2022/07/29 08:00:45;;;;;;;12.00;6.47;;;;;;;;;;5052530;28;20486;-77
2022/07/29 08:03:13;;;;;;;10.80;5.75;;;;;;;;;;5046350;28;20053;-66
2022/07/29 08:05:40;;;;;;;10.18;5.38;;;;;;;;;;5050930;28;20112;-69
2022/07/29 08:08:06;;;;;;;9.15;4.72;;;;;;;;;;5041490;28;20016;-69
2022/07/29 08:13:17;;;;;;;14.32;6.13;;;31.50;73.20;;;;;;5053568;28;20029;-75
2022/07/29 08:15:45;;;;;;;15.95;5.70;;;31.40;73.40;;;;;;5054154;28;20032;-78
2022/07/29 08:18:14;;;;;;;10.10;5.15;;;31.10;70.60;;;;;;5053856;28;20066;-79
2022/07/29 08:20:40;;;;;;;10.43;5.38;;;31.40;74.80;;;;;;5053838;28;20028;-77
2022/07/29 08:23:08;;;;;;;11.88;5.85;;;31.10;74.70;;;;;;5053892;28;20037;-78
2022/07/29 08:25:36;;;;;;;16.60;6.53;;;31.10;76.90;;;;;;5053353;28;20538;-78
2022/07/29 08:28:02;;;;;;;16.45;6.13;;;;;;;;;;5051811;28;20071;-78
2022/07/29 08:30:28;;;;;;;13.55;6.43;;;31.00;67.60;;;;;;5052545;28;20112;-74
2022/07/29 08:32:54;;;;;;;8.43;5.57;;;30.90;67.60;;;;;;5050106;28;20158;-75
2022/07/29 08:35:22;;;;;;;14.48;5.78;;;31.30;67.20;;;;;;5050442;28;20025;-76
2022/07/29 08:37:48;;;;;;;11.25;6.57;;;31.50;74.10;;;;;;5052809;28;20378;-74
2022/07/29 08:40:14;;;;;;;14.15;6.30;;;31.30;72.40;;;;;;5052909;28;20041;-66
2022/07/29 08:42:40;;;;;;;9.73;5.70;;;;;;;;;;5053005;28;20028;-74
2022/07/29 08:45:07;;;;;;;10.52;5.57;;;31.90;65.60;;;;;;5052476;28;20017;-72
2022/07/29 08:47:33;;;;;;;9.30;5.85;;;31.00;67.00;;;;;;5052509;28;20391;-78
2022/07/29 08:49:59;;;;;;;10.32;6.30;;;31.60;72.70;;;;;;5052564;28;20478;-77
2022/07/29 08:52:26;;;;;;;11.45;5.72;;;31.50;66.80;;;;;;5052587;28;20060;-77
2022/07/29 08:54:53;;;;;;;13.80;6.28;;;31.80;65.30;;;;;;5053135;28;20021;-73
2022/07/29 08:57:20;;;;;;;7.07;5.38;;;;;;;;;;5050370;28;20032;-77
2022/07/29 08:59:49;;;;;;;9.38;5.78;;;32.20;66.00;;;;;;5051694;28;20411;-78
2022/07/29 09:02:19;;;;;;;10.38;5.20;;;31.60;65.50;;;;;;5051688;28;20061;-78
2022/07/29 09:04:47;;;;;;;8.88;5.28;;;31.30;63.70;;;;;;5051734;28;20041;-77
2022/07/29 09:07:17;;;;;;;9.18;4.80;;;31.40;84.00;;;;;;5052262;28;20111;-78
2022/07/29 09:09:44;;;;;;;11.27;4.78;;;31.70;84.70;;;;;;5051214;28;20056;-70
2022/07/29 09:12:11;;;;;;;11.15;5.78;;;31.70;83.60;;;;;;5051829;28;20033;-79
2022/07/29 09:14:40;;;;;;;9.50;5.63;;;32.10;75.60;;;;;;5052157;28;20060;-77
2022/07/29 09:17:07;;;;;;;9.35;5.47;;;;;;;;;;5034506;28;20121;-77
2022/07/29 09:19:35;;;;;;;8.65;5.32;;;32.50;79.10;;;;;;5050267;28;20399;-79
2022/07/29 09:22:04;;;;;;;9.73;5.60;;;32.60;72.70;;;;;;5052806;28;20025;-79
2022/07/29 09:24:40;;;;;;;7.25;5.25;;;32.40;62.40;;;;;;5052388;28;20094;-80
2022/07/29 09:27:17;;;;;;;6.72;4.93;;;32.30;66.40;;;;;;5050632;28;20044;-78
2022/07/29 09:29:43;;;;;;;11.93;5.47;;;32.30;69.30;;;;;;5050677;28;20028;-76
2022/07/29 09:32:10;;;;;;;7.88;5.22;;;32.10;67.60;;;;;;5051743;28;20383;-80
2022/07/29 09:34:36;;;;;;;10.90;5.20;;;32.30;68.30;;;;;;5051684;28;20041;-74
2022/07/29 09:37:02;;;;;;;13.70;5.95;;;31.60;60.80;;;;;;5051469;28;20025;-79
2022/07/29 09:39:37;;;;;;;8.73;4.80;;;31.80;62.10;;;;;;5049121;28;20033;-78
2022/07/29 09:42:06;;;;;;;10.60;5.30;;;31.70;62.70;;;;;;5050269;28;20029;-80
2022/07/29 09:45:02;;;;;;;9.15;5.47;;;32.10;60.90;;;;;;5032359;28;20060;-80
2022/07/29 09:47:41;;;;;;;9.57;5.32;;;32.00;61.20;;;;;;4989027;28;20077;-79
2022/07/29 09:50:08;;;;;;;16.27;6.32;;;31.50;61.30;;;;;;4989626;28;20030;-79
2022/07/29 09:52:48;;;;;;;7.28;4.93;;;31.60;61.60;;;;;;4989638;28;20125;-77
2022/07/29 09:55:15;;;;;;;10.43;5.07;;;32.20;62.50;;;;;;4990110;28;20120;-80
2022/07/29 09:57:41;;;;;;;15.75;4.55;;;32.50;61.60;;;;;;4987996;28;20038;-78
2022/07/29 10:00:14;;;;;;;14.23;5.20;;;32.30;60.70;;;;;;4988611;28;20117;-66
2022/07/29 10:02:43;;;;;;;8.93;5.28;;;32.30;62.00;;;;;;4989917;28;20050;-79
2022/07/29 10:05:21;;;;;;;9.68;4.95;;;32.50;60.80;;;;;;4988852;28;20045;-78
2022/07/29 10:07:50;;;;;;;9.02;5.38;;;32.80;60.30;;;;;;4979605;28;20038;-76
2022/07/29 10:10:27;;;;;;;13.38;5.78;;;31.90;59.80;;;;;;4988840;28;20046;-80
2022/07/29 10:12:58;;;;;;;9.05;5.43;;;32.10;60.70;;;;;;4989595;28;20129;-79
2022/07/29 10:15:30;;;;;;;13.48;5.97;;;32.00;60.20;;;;;;4990098;28;20026;-80
2022/07/29 10:17:56;;;;;;;8.05;5.60;;;32.00;60.90;;;;;;4990565;28;20453;-77
2022/07/29 10:20:23;;;;;;;7.20;5.35;;;32.60;61.90;;;;;;4990269;28;20058;-76
2022/07/29 10:22:51;;;;;;;9.10;5.72;;;32.10;60.80;;;;;;4992112;28;20049;-76
2022/07/29 10:25:18;;;;;;;17.23;5.45;;;32.30;61.30;;;;;;5040392;28;20032;-61
2022/07/29 10:27:45;;;;;;;15.20;5.65;;;32.40;60.80;;;;;;5050812;28;20017;-77
2022/07/29 10:30:12;;;;;;;7.65;5.43;;;32.20;60.60;;;;;;5051368;28;20367;-76
2022/07/29 10:32:58;;;;;;;6.68;4.97;;;32.50;60.60;;;;;;5055028;28;20032;-77
2022/07/29 10:35:36;;;;;;;9.50;5.20;;;32.30;60.40;;;;;;5054229;28;20368;-75
2022/07/29 10:38:21;;;;;;;14.73;5.20;;;31.80;60.40;;;;;;5051873;28;20035;-70
2022/07/29 10:41:26;;;;;;;9.45;5.43;;;32.10;61.10;;;;;;5047644;28;20466;-68
2022/07/29 10:44:22;;;;;;;12.20;7.30;;;32.20;60.40;;;;;;5028826;28;20029;-72
2022/07/29 10:46:48;;;;;;;7.82;5.38;;;32.30;60.60;;;;;;5043550;28;20404;-65
2022/07/29 10:49:17;;;;;;;14.13;5.30;;;32.40;60.40;;;;;;5044165;28;20152;-65
2022/07/29 10:51:57;;;;;;;15.18;4.53;;;32.50;60.20;;;;;;5018049;28;20044;-61
2022/07/29 10:54:35;;;;;;;6.63;4.97;;;32.50;60.00;;;;;;5039153;28;20371;-63
2022/07/29 10:57:21;;;;;;;8.23;4.65;;;32.90;85.00;;;;;;5046220;28;20044;-76
2022/07/29 11:00:11;;;;;;;8.52;5.72;;;32.90;60.10;;;;;;5054992;28;20033;-75
2022/07/29 11:02:40;;;;;;;9.10;4.85;;;33.10;59.90;;;;;;5046225;28;20080;-77
2022/07/29 11:05:14;;;;;;;10.98;5.95;;;;;;;;;;5054462;28;20052;-75
2022/07/29 11:08:12;;;;;;;9.02;5.13;;;33.40;60.10;;;;;;5055078;28;20025;-75
2022/07/29 11:10:38;;;;;;;10.13;5.13;;;33.70;58.30;;;;;;5055458;28;20028;-77
2022/07/29 11:13:04;;;;;;;9.57;5.40;;;33.30;58.10;;;;;;5051552;28;20099;-74
2022/07/29 11:15:57;;;;;;;11.02;5.25;;;33.00;58.80;;;;;;5036136;28;20116;-77
2022/07/29 11:18:23;;;;;;;7.63;5.38;;;33.20;59.10;;;;;;5049618;28;20064;-77
2022/07/29 11:20:54;;;;;;;8.65;4.95;;;33.50;59.10;;;;;;5039923;28;20064;-75
2022/07/29 11:23:23;;;;;;;8.73;5.50;;;33.90;57.50;;;;;;5044294;28;20037;-76
2022/07/29 11:26:21;;;;;;;7.10;4.47;;;34.10;57.50;;;;;;5051158;28;20029;-73
2022/07/29 11:28:56;;;;;;;8.93;4.63;;;33.70;56.40;;;;;;5049008;28;20051;-74
2022/07/29 11:31:38;;;;;;;7.30;4.60;;;33.40;56.70;;;;;;5054131;28;20025;-77
2022/07/29 11:34:27;;;;;;;7.25;4.35;;;33.00;57.20;;;;;;5054950;28;20037;-77
2022/07/29 11:37:12;;;;;;;6.20;4.68;;;;;;;;;;5049845;28;20472;-78
2022/07/29 11:39:54;;;;;;;9.63;5.07;;;32.90;75.70;;;;;;5052210;28;20426;-77
2022/07/29 11:42:20;;;;;;;5.22;4.35;;;33.00;70.00;;;;;;5053558;28;20067;-77
2022/07/29 11:45:13;;;;;;;9.88;5.28;;;33.00;61.30;;;;;;5052506;28;20044;-78
2022/07/29 11:47:49;;;;;;;11.32;5.55;;;33.10;65.20;;;;;;5054329;28;20094;-69
2022/07/29 11:50:17;;;;;;;8.30;5.53;;;33.00;73.70;;;;;;5054552;28;20029;-76
2022/07/29 11:52:46;;;;;;;9.82;5.05;;;32.90;58.40;;;;;;5055145;28;20468;-77
2022/07/29 11:55:16;;;;;;;7.90;5.25;;;;;;;;;;5052709;28;20426;-75
2022/07/29 11:57:54;;;;;;;10.63;5.33;;;32.60;64.60;;;;;;5053280;28;20021;-76
2022/07/29 12:00:37;;;;;;;7.80;5.28;;;32.60;63.70;;;;;;5054237;28;20064;-76
2022/07/29 12:03:08;;;;;;;6.72;5.40;;;32.50;74.40;;;;;;5047396;28;20076;-76
2022/07/29 12:05:34;;;;;;;8.02;5.13;;;;;;;;;;5053787;28;20491;-68
2022/07/29 12:08:09;;;;;;;7.95;4.97;;;32.60;75.00;;;;;;5052745;28;20108;-77
2022/07/29 12:10:35;;;;;;;8.45;5.07;;;32.60;75.60;;;;;;5052727;28;20060;-74
2022/07/29 12:13:04;;;;;;;8.57;5.43;;;32.70;75.40;;;;;;5048732;28;20020;-75
2022/07/29 12:15:29;;;;;;;7.68;4.20;;;33.00;78.90;;;;;;5053548;28;20083;-68
2022/07/29 12:17:55;;;;;;;5.30;4.68;;;33.40;74.70;;;;;;5046771;28;20056;-76
2022/07/29 12:20:24;;;;;;;10.98;5.72;;;33.20;71.10;;;;;;5040627;28;20044;-77
2022/07/29 12:22:50;;;;;;;7.95;4.57;;;32.90;70.90;;;;;;5053519;28;20032;-73
2022/07/29 12:25:17;;;;;;;11.43;5.07;;;32.90;70.80;;;;;;5053578;28;20044;-77
2022/07/29 12:27:43;;;;;;;5.97;4.30;;;32.90;70.30;;;;;;5053683;28;20017;-75
2022/07/29 12:30:12;;;;;;;8.68;4.50;;;33.00;68.50;;;;;;5053723;28;20112;-75
2022/07/29 12:32:43;;;;;;;7.88;5.25;;;;;;;;;;5053634;28;20047;-68
2022/07/29 12:35:14;;;;;;;8.32;5.10;;;33.20;56.30;;;;;;5052831;28;20107;-72
2022/07/29 12:37:41;;;;;;;;;;;33.30;56.50;;;;;;5036140;28;20033;-77
2022/07/29 12:40:09;;;;;;;8.85;5.20;;;33.10;56.40;;;;;;5053148;28;19916;-76
2022/07/29 12:42:35;;;;;;;8.07;5.10;;;33.10;56.60;;;;;;5051849;28;20060;-75
2022/07/29 12:45:02;;;;;;;10.35;4.40;;;33.20;56.70;;;;;;5044445;28;20029;-76
2022/07/29 12:47:28;;;;;;;5.95;4.78;;;33.50;57.20;;;;;;5046394;28;20372;-71
2022/07/29 12:50:11;;;;;;;5.68;4.15;;;33.40;56.20;;;;;;5044238;28;20029;-73
2022/07/29 12:52:37;;;;;;;7.75;4.82;;;33.50;56.70;;;;;;5048745;28;20457;-79
2022/07/29 12:55:04;;;;;;;8.25;5.10;;;33.70;61.80;;;;;;5046978;28;20101;-75
2022/07/29 12:57:31;;;;;;;9.57;5.38;;;33.30;58.20;;;;;;5052884;28;20048;-75
2022/07/29 13:00:00;;;;;;;7.15;5.22;;;33.10;62.70;;;;;;5052526;28;20028;-74
2022/07/29 13:02:26;;;;;;;9.23;4.97;;;33.10;64.40;;;;;;5034440;28;20102;-76
2022/07/29 13:04:57;;;;;;;9.63;6.25;;;33.10;63.80;;;;;;5051725;28;20024;-76
2022/07/29 13:07:28;;;;;;;9.27;5.75;;;33.20;62.70;;;;;;5053804;28;20029;-77